Time,TemperatureF,DewpointF,PressureIn,WindDirection,WindDirectionDegrees,WindSpeedMPH,WindSpeedGustMPH,Humidity,HourlyPrecipIn,Conditions,Clouds,dailyrainin,SoftwareType,DateUTC
2013-01-09 00:01:00,42.7,40.5,29.80,ENE,68,1.1,1.1,92,0.00,,,0.00,WUHU216HW,2013-01-09 08:01:00,
2013-01-09 00:06:00,42.7,40.5,29.80,ENE,68,1.0,1.6,92,0.00,,,0.00,WUHU216HW,2013-01-09 08:06:00,
2013-01-09 00:11:00,42.7,40.5,29.80,ENE,68,0.4,1.6,92,0.00,,,0.00,WUHU216HW,2013-01-09 08:11:00,
2013-01-09 00:16:00,42.7,40.5,29.80,ENE,68,0.3,0.7,92,0.00,,,0.00,WUHU216HW,2013-01-09 08:16:00,
2013-01-09 00:21:00,42.7,40.5,29.80,ENE,68,1.8,1.8,92,0.00,,,0.00,WUHU216HW,2013-01-09 08:21:00,
2013-01-09 00:26:00,42.7,40.5,29.80,ENE,68,0.0,1.8,92,0.00,,,0.00,WUHU216HW,2013-01-09 08:26:00,
2013-01-09 00:31:00,42.7,40.5,29.80,NE,45,0.7,1.1,92,0.00,,,0.00,WUHU216HW,2013-01-09 08:31:00,
2013-01-09 00:37:00,42.7,40.5,29.80,NE,45,1.1,1.1,92,0.00,,,0.00,WUHU216HW,2013-01-09 08:37:00,
2013-01-09 00:42:00,42.7,40.5,29.80,NE,45,0.8,1.1,92,0.00,,,0.00,WUHU216HW,2013-01-09 08:42:00,
2013-01-09 00:47:00,42.7,40.5,29.80,ENE,68,1.8,1.8,92,0.00,,,0.00,WUHU216HW,2013-01-09 08:47:00,
2013-01-09 00:52:00,42.8,41.0,29.80,NE,45,2.5,2.5,93,0.00,,,0.00,WUHU216HW,2013-01-09 08:52:00,
2013-01-09 00:57:00,42.8,41.0,29.79,ENE,59,1.3,3.1,93,0.00,,,0.00,WUHU216HW,2013-01-09 08:57:00,
2013-01-09 01:02:00,42.8,41.0,29.80,NE,45,1.8,3.1,93,0.00,,,0.00,WUHU216HW,2013-01-09 09:02:00,
2013-01-09 01:07:00,42.8,41.0,29.80,ENE,68,1.1,2.2,93,0.00,,,0.00,WUHU216HW,2013-01-09 09:07:00,
2013-01-09 01:12:00,42.8,41.0,29.80,East,90,0.0,1.6,93,0.00,,,0.00,WUHU216HW,2013-01-09 09:12:00,
2013-01-09 01:17:00,42.8,41.0,29.80,ENE,68,1.3,1.6,93,0.00,,,0.00,WUHU216HW,2013-01-09 09:17:00,
2013-01-09 01:22:00,42.8,41.0,29.79,ENE,68,1.6,2.0,93,0.00,,,0.00,WUHU216HW,2013-01-09 09:22:00,
2013-01-09 01:27:00,42.7,40.8,29.79,East,90,1.8,2.5,93,0.00,,,0.00,WUHU216HW,2013-01-09 09:27:00,
2013-01-09 01:32:00,42.7,40.8,29.78,ENE,68,2.9,2.9,93,0.00,,,0.00,WUHU216HW,2013-01-09 09:32:00,
2013-01-09 01:37:00,42.7,40.8,29.79,East,90,1.6,2.9,93,0.00,,,0.00,WUHU216HW,2013-01-09 09:37:00,
2013-01-09 01:42:00,42.7,40.8,29.78,NE,45,2.2,2.9,93,0.00,,,0.00,WUHU216HW,2013-01-09 09:42:00,
2013-01-09 01:48:00,42.5,40.6,29.78,ENE,68,1.1,2.9,93,0.00,,,0.00,WUHU216HW,2013-01-09 09:48:00,
2013-01-09 01:53:00,42.5,40.6,29.78,ENE,68,0.7,2.9,93,0.00,,,0.00,WUHU216HW,2013-01-09 09:53:00,
2013-01-09 01:58:00,42.5,40.6,29.79,ENE,68,0.4,2.2,93,0.00,,,0.00,WUHU216HW,2013-01-09 09:58:00,
2013-01-09 02:03:00,42.3,40.4,29.79,ENE,68,0.4,0.9,93,0.00,,,0.00,WUHU216HW,2013-01-09 10:03:00,
2013-01-09 02:08:00,42.3,40.4,29.78,ENE,68,1.3,1.3,93,0.00,,,0.00,WUHU216HW,2013-01-09 10:08:00,
2013-01-09 02:13:00,42.3,40.4,29.78,ENE,68,0.4,1.3,93,0.00,,,0.00,WUHU216HW,2013-01-09 10:13:00,
2013-01-09 02:18:00,42.1,40.2,29.78,ENE,68,0.0,1.1,93,0.00,,,0.00,WUHU216HW,2013-01-09 10:18:00,
2013-01-09 02:23:00,42.1,40.2,29.78,NE,54,1.3,1.6,93,0.00,,,0.00,WUHU216HW,2013-01-09 10:23:00,
2013-01-09 02:28:00,42.1,40.2,29.79,SSW,203,1.3,1.6,93,0.00,,,0.00,WUHU216HW,2013-01-09 10:28:00,
2013-01-09 02:33:00,42.1,40.2,29.79,SSW,203,0.9,1.3,93,0.00,,,0.00,WUHU216HW,2013-01-09 10:33:00,
2013-01-09 02:38:00,42.3,40.4,29.78,SSW,203,0.0,1.1,93,0.00,,,0.00,WUHU216HW,2013-01-09 10:38:00,
2013-01-09 02:43:00,42.1,40.2,29.77,SSW,203,0.0,1.1,93,0.00,,,0.00,WUHU216HW,2013-01-09 10:43:00,
2013-01-09 02:49:00,42.1,40.2,29.75,NE,45,2.0,2.0,93,0.00,,,0.00,WUHU216HW,2013-01-09 10:49:00,
2013-01-09 02:54:00,42.1,40.2,29.75,NE,45,0.8,3.1,93,0.00,,,0.00,WUHU216HW,2013-01-09 10:54:00,
2013-01-09 02:59:00,42.1,40.2,29.77,West,270,2.0,3.1,93,0.00,,,0.00,WUHU216HW,2013-01-09 10:59:00,
2013-01-09 03:04:00,42.1,40.2,29.77,WSW,248,1.1,2.7,93,0.00,,,0.00,WUHU216HW,2013-01-09 11:04:00,
2013-01-09 03:09:00,42.1,40.2,29.76,WNW,287,0.5,2.7,93,0.00,,,0.00,WUHU216HW,2013-01-09 11:09:00,
2013-01-09 03:14:00,41.9,40.1,29.77,WSW,248,1.8,1.8,93,0.00,,,0.00,WUHU216HW,2013-01-09 11:14:00,
2013-01-09 03:19:00,41.8,39.9,29.77,WSW,248,1.3,1.8,93,0.00,,,0.00,WUHU216HW,2013-01-09 11:19:00,
2013-01-09 03:24:00,41.8,39.9,29.76,West,271,0.6,1.8,93,0.00,,,0.00,WUHU216HW,2013-01-09 11:24:00,
2013-01-09 03:29:00,41.6,39.7,29.76,WNW,293,0.7,0.9,93,0.00,,,0.00,WUHU216HW,2013-01-09 11:29:00,
2013-01-09 03:34:00,41.4,39.5,29.76,WNW,293,0.4,1.1,93,0.00,,,0.00,WUHU216HW,2013-01-09 11:34:00,
2013-01-09 03:39:00,41.4,39.5,29.77,WNW,293,0.5,1.1,93,0.00,,,0.00,WUHU216HW,2013-01-09 11:39:00,
2013-01-09 03:44:00,41.4,39.5,29.76,WNW,293,0.0,0.7,93,0.00,,,0.00,WUHU216HW,2013-01-09 11:44:00,
2013-01-09 03:49:00,41.2,39.3,29.75,NW,315,0.0,0.9,93,0.00,,,0.00,WUHU216HW,2013-01-09 11:49:00,
2013-01-09 03:54:00,41.0,39.2,29.75,WNW,293,1.1,1.1,93,0.00,,,0.00,WUHU216HW,2013-01-09 11:54:00,
2013-01-09 04:00:00,41.0,39.2,29.75,West,270,1.0,1.6,93,0.00,,,0.00,WUHU216HW,2013-01-09 12:00:00,
2013-01-09 04:05:00,40.9,39.0,29.74,NNE,24,1.0,1.6,93,0.00,,,0.00,WUHU216HW,2013-01-09 12:05:00,
2013-01-09 04:10:00,40.9,39.0,29.75,WSW,252,1.8,2.2,93,0.00,,,0.00,WUHU216HW,2013-01-09 12:10:00,
2013-01-09 04:15:00,40.7,38.8,29.75,WSW,248,0.0,2.2,93,0.00,,,0.00,WUHU216HW,2013-01-09 12:15:00,
2013-01-09 04:20:00,40.7,38.8,29.74,WSW,248,0.0,1.3,93,0.00,,,0.00,WUHU216HW,2013-01-09 12:20:00,
2013-01-09 04:25:00,40.7,38.8,29.75,WSW,248,0.7,0.9,93,0.00,,,0.00,WUHU216HW,2013-01-09 12:25:00,
2013-01-09 04:30:00,40.5,38.6,29.75,WSW,248,0.0,0.9,93,0.00,,,0.00,WUHU216HW,2013-01-09 12:30:00,
2013-01-09 04:35:00,40.3,38.4,29.75,WSW,248,0.5,1.1,93,0.00,,,0.00,WUHU216HW,2013-01-09 12:35:00,
2013-01-09 04:40:00,40.3,38.4,29.74,WSW,248,0.0,1.1,93,0.00,,,0.00,WUHU216HW,2013-01-09 12:40:00,
2013-01-09 04:45:00,40.1,38.3,29.74,WSW,248,0.0,0.0,93,0.00,,,0.00,WUHU216HW,2013-01-09 12:45:00,
2013-01-09 04:50:00,40.1,38.3,29.74,WSW,248,0.0,0.0,93,0.00,,,0.00,WUHU216HW,2013-01-09 12:50:00,
2013-01-09 04:56:00,40.0,38.1,29.74,WSW,248,1.1,1.1,93,0.00,,,0.00,WUHU216HW,2013-01-09 12:56:00,
2013-01-09 05:01:00,40.0,38.1,29.73,East,90,1.1,1.3,93,0.00,,,0.00,WUHU216HW,2013-01-09 13:01:00,
2013-01-09 05:06:00,40.0,38.1,29.73,East,90,0.7,1.3,93,0.00,,,0.00,WUHU216HW,2013-01-09 13:06:00,
2013-01-09 05:11:00,40.0,38.1,29.74,East,90,0.0,0.9,93,0.00,,,0.00,WUHU216HW,2013-01-09 13:11:00,
2013-01-09 05:16:00,40.0,38.1,29.73,East,90,0.0,0.0,93,0.00,,,0.00,WUHU216HW,2013-01-09 13:16:00,
2013-01-09 05:21:00,40.0,38.1,29.72,East,90,1.3,1.3,93,0.00,,,0.00,WUHU216HW,2013-01-09 13:21:00,
2013-01-09 05:26:00,40.0,38.1,29.72,East,90,1.8,2.5,93,0.00,,,0.00,WUHU216HW,2013-01-09 13:26:00,
2013-01-09 05:31:00,40.0,38.1,29.73,ENE,68,0.7,2.5,93,0.00,,,0.00,WUHU216HW,2013-01-09 13:31:00,
2013-01-09 05:36:00,40.0,38.1,29.73,ENE,68,0.5,2.2,93,0.00,,,0.00,WUHU216HW,2013-01-09 13:36:00,
2013-01-09 05:41:00,40.0,38.1,29.73,ENE,68,1.1,1.3,93,0.00,,,0.00,WUHU216HW,2013-01-09 13:41:00,
2013-01-09 05:46:00,40.0,38.3,29.73,ENE,68,0.0,1.3,94,0.00,,,0.00,WUHU216HW,2013-01-09 13:46:00,
2013-01-09 05:51:00,40.0,38.3,29.73,NE,45,0.3,1.1,94,0.00,,,0.00,WUHU216HW,2013-01-09 13:51:00,
2013-01-09 05:56:00,40.0,38.3,29.73,NE,45,1.1,1.1,94,0.00,,,0.00,WUHU216HW,2013-01-09 13:56:00,
2013-01-09 06:02:00,40.0,38.3,29.73,NE,45,0.9,1.1,94,0.00,,,0.00,WUHU216HW,2013-01-09 14:02:00,
2013-01-09 06:07:00,40.0,38.1,29.73,NW,315,0.4,1.1,93,0.00,,,0.00,WUHU216HW,2013-01-09 14:07:00,
2013-01-09 06:12:00,40.0,38.1,29.73,NW,315,0.0,0.9,93,0.00,,,0.00,WUHU216HW,2013-01-09 14:12:00,
2013-01-09 06:17:00,40.0,38.1,29.72,ENE,68,1.2,1.8,93,0.00,,,0.00,WUHU216HW,2013-01-09 14:17:00,
2013-01-09 06:22:00,40.0,38.1,29.72,ENE,68,0.5,1.8,93,0.00,,,0.00,WUHU216HW,2013-01-09 14:22:00,
2013-01-09 06:27:00,40.1,38.3,29.73,West,270,1.8,1.8,93,0.00,,,0.00,WUHU216HW,2013-01-09 14:27:00,
2013-01-09 06:32:00,40.0,38.1,29.74,West,270,0.9,2.0,93,0.00,,,0.00,WUHU216HW,2013-01-09 14:32:00,
2013-01-09 06:37:00,40.0,38.1,29.73,West,270,0.0,2.0,93,0.00,,,0.00,WUHU216HW,2013-01-09 14:37:00,
2013-01-09 06:42:00,40.0,38.1,29.73,West,270,0.0,0.7,93,0.00,,,0.00,WUHU216HW,2013-01-09 14:42:00,
2013-01-09 06:47:00,40.0,38.1,29.74,West,270,0.0,0.0,93,0.00,,,0.00,WUHU216HW,2013-01-09 14:47:00,
2013-01-09 06:52:00,39.8,37.9,29.73,West,270,0.0,0.0,93,0.00,,,0.00,WUHU216HW,2013-01-09 14:52:00,
2013-01-09 06:57:00,39.6,37.7,29.73,West,270,0.0,0.0,93,0.00,,,0.00,WUHU216HW,2013-01-09 14:57:00,
2013-01-09 07:02:00,39.6,37.7,29.73,West,270,0.0,0.0,93,0.00,,,0.00,WUHU216HW,2013-01-09 15:02:00,
2013-01-09 07:07:00,39.6,37.7,29.73,West,270,1.0,1.1,93,0.00,,,0.00,WUHU216HW,2013-01-09 15:07:00,
2013-01-09 07:12:00,39.6,37.7,29.73,West,270,0.0,1.1,93,0.00,,,0.00,WUHU216HW,2013-01-09 15:12:00,
2013-01-09 07:17:00,39.4,37.5,29.72,West,270,0.0,0.7,93,0.00,,,0.00,WUHU216HW,2013-01-09 15:17:00,
2013-01-09 07:23:00,39.2,37.4,29.72,West,270,0.0,0.0,93,0.00,,,0.00,WUHU216HW,2013-01-09 15:23:00,
2013-01-09 07:28:00,39.2,37.4,29.72,West,270,0.0,0.0,93,0.00,,,0.00,WUHU216HW,2013-01-09 15:28:00,
2013-01-09 07:33:00,39.2,37.4,29.72,West,270,0.0,0.0,93,0.00,,,0.00,WUHU216HW,2013-01-09 15:33:00,
2013-01-09 07:38:00,39.2,37.4,29.72,West,270,0.0,0.0,93,0.00,,,0.00,WUHU216HW,2013-01-09 15:38:00,
2013-01-09 07:43:00,39.2,37.4,29.71,ENE,68,1.6,1.6,93,0.00,,,0.00,WUHU216HW,2013-01-09 15:43:00,
2013-01-09 07:48:00,39.2,37.4,29.72,East,90,0.6,1.6,93,0.00,,,0.00,WUHU216HW,2013-01-09 15:48:00,
2013-01-09 07:53:00,39.4,37.5,29.72,East,90,0.0,1.6,93,0.00,,,0.00,WUHU216HW,2013-01-09 15:53:00,
2013-01-09 07:58:00,39.6,37.7,29.72,SW,225,1.3,1.8,93,0.00,,,0.00,WUHU216HW,2013-01-09 15:58:00,
2013-01-09 08:03:00,39.6,37.7,29.72,SW,225,0.2,1.8,93,0.00,,,0.00,WUHU216HW,2013-01-09 16:03:00,
2013-01-09 08:08:00,39.8,37.9,29.72,SW,225,0.0,0.7,93,0.00,,,0.00,WUHU216HW,2013-01-09 16:08:00,
2013-01-09 08:13:00,40.0,38.1,29.72,SW,225,0.7,0.9,93,0.00,,,0.00,WUHU216HW,2013-01-09 16:13:00,
2013-01-09 08:18:00,40.0,38.3,29.72,SW,225,0.0,0.9,94,0.00,,,0.00,WUHU216HW,2013-01-09 16:18:00,
2013-01-09 08:24:00,40.3,38.7,29.72,SW,225,1.1,1.1,94,0.00,,,0.00,WUHU216HW,2013-01-09 16:24:00,
2013-01-09 08:29:00,40.5,39.2,29.73,SW,225,1.1,1.3,95,0.00,,,0.00,WUHU216HW,2013-01-09 16:29:00,
2013-01-09 08:34:00,40.7,39.3,29.73,WNW,293,2.0,3.6,95,0.00,,,0.00,WUHU216HW,2013-01-09 16:34:00,
2013-01-09 08:39:00,41.0,39.7,29.73,NW,315,0.9,3.6,95,0.00,,,0.00,WUHU216HW,2013-01-09 16:39:00,
2013-01-09 08:44:00,41.2,39.9,29.73,West,270,1.0,1.8,95,0.00,,,0.00,WUHU216HW,2013-01-09 16:44:00,
2013-01-09 08:49:00,41.4,40.1,29.72,West,270,0.0,1.3,95,0.00,,,0.00,WUHU216HW,2013-01-09 16:49:00,
2013-01-09 08:54:00,41.8,40.4,29.73,West,270,0.7,1.1,95,0.00,,,0.00,WUHU216HW,2013-01-09 16:54:00,
2013-01-09 08:59:00,42.1,40.8,29.73,SSW,203,0.2,1.1,95,0.00,,,0.00,WUHU216HW,2013-01-09 16:59:00,
2013-01-09 09:04:00,42.5,41.1,29.72,SSW,203,0.2,1.1,95,0.00,,,0.00,WUHU216HW,2013-01-09 17:04:00,
2013-01-09 09:09:00,42.8,41.5,29.72,SW,225,0.0,0.2,95,0.00,,,0.00,WUHU216HW,2013-01-09 17:09:00,
2013-01-09 09:14:00,43.2,41.9,29.72,West,270,0.4,0.4,95,0.00,,,0.00,WUHU216HW,2013-01-09 17:14:00,
2013-01-09 09:19:00,43.4,42.0,29.73,West,270,0.0,0.9,95,0.00,,,0.00,WUHU216HW,2013-01-09 17:19:00,
2013-01-09 09:24:00,43.7,42.4,29.73,West,270,1.1,1.1,95,0.00,,,0.00,WUHU216HW,2013-01-09 17:24:00,
2013-01-09 09:30:00,43.9,42.6,29.73,WSW,248,1.4,1.8,95,0.00,,,0.00,WUHU216HW,2013-01-09 17:30:00,
2013-01-09 09:35:00,44.3,42.9,29.72,WSW,248,0.9,1.8,95,0.00,,,0.00,WUHU216HW,2013-01-09 17:35:00,
2013-01-09 09:40:00,44.6,43.3,29.73,WSW,248,1.1,1.6,95,0.00,,,0.00,WUHU216HW,2013-01-09 17:40:00,
2013-01-09 09:45:00,45.0,43.7,29.73,WSW,248,0.8,1.3,95,0.00,,,0.00,WUHU216HW,2013-01-09 17:45:00,
2013-01-09 09:50:00,45.4,44.0,29.72,WSW,248,0.0,1.3,95,0.00,,,0.00,WUHU216HW,2013-01-09 17:50:00,
2013-01-09 09:55:00,45.7,44.4,29.72,SW,225,0.3,0.4,95,0.00,,,0.00,WUHU216HW,2013-01-09 17:55:00,
2013-01-09 10:00:00,46.1,44.7,29.71,SE,130,1.4,1.8,95,0.00,,,0.00,WUHU216HW,2013-01-09 18:00:00,
2013-01-09 10:05:00,46.4,44.8,29.71,ESE,114,1.6,2.2,94,0.00,,,0.00,WUHU216HW,2013-01-09 18:05:00,
2013-01-09 10:10:00,46.8,45.2,29.71,SSW,203,0.2,2.2,94,0.00,,,0.00,WUHU216HW,2013-01-09 18:10:00,
2013-01-09 10:15:00,47.2,45.8,29.71,SSW,203,0.4,1.3,95,0.00,,,0.00,WUHU216HW,2013-01-09 18:15:00,
2013-01-09 10:20:00,47.5,46.2,29.71,SE,126,1.4,2.5,95,0.00,,,0.00,WUHU216HW,2013-01-09 18:20:00,
2013-01-09 10:25:00,47.9,46.5,29.71,SSW,197,0.8,2.5,95,0.00,,,0.00,WUHU216HW,2013-01-09 18:25:00,
2013-01-09 10:30:00,48.2,46.6,29.71,South,180,0.4,1.6,94,0.00,,,0.00,WUHU216HW,2013-01-09 18:30:00,
2013-01-09 10:35:00,48.6,47.0,29.70,East,100,2.3,3.4,94,0.00,,,0.00,WUHU216HW,2013-01-09 18:35:00,
2013-01-09 10:40:00,48.8,47.2,29.70,SE,135,4.0,4.0,94,0.00,,,0.00,WUHU216HW,2013-01-09 18:40:00,
2013-01-09 10:41:00,48.8,47.2,29.70,ESE,113,4.5,4.5,94,0.00,,,0.00,WUHU216HW,2013-01-09 18:41:00,
2013-01-09 10:42:00,49.0,47.4,29.69,ESE,113,3.4,4.5,94,0.00,,,0.00,WUHU216HW,2013-01-09 18:42:00,
2013-01-09 10:44:00,49.0,47.4,29.69,ESE,113,4.3,4.5,94,0.00,,,0.00,WUHU216HW,2013-01-09 18:44:00,
2013-01-09 10:45:00,49.0,47.0,29.69,ESE,113,3.8,4.5,93,0.00,,,0.00,WUHU216HW,2013-01-09 18:45:00,
2013-01-09 10:48:00,49.0,47.0,29.69,East,96,2.8,4.5,93,0.00,,,0.00,WUHU216HW,2013-01-09 18:48:00,
2013-01-09 10:49:00,49.0,47.0,29.69,East,85,3.3,4.5,93,0.00,,,0.00,WUHU216HW,2013-01-09 18:49:00,
2013-01-09 10:54:00,49.1,47.2,29.69,ESE,109,3.2,4.7,93,0.00,,,0.00,WUHU216HW,2013-01-09 18:54:00,
2013-01-09 10:59:00,49.0,47.0,29.69,SE,130,1.5,4.7,93,0.00,,,0.00,WUHU216HW,2013-01-09 18:59:00,
2013-01-09 11:04:00,49.1,46.9,29.69,ESE,120,2.8,4.3,92,0.00,,,0.00,WUHU216HW,2013-01-09 19:04:00,
2013-01-09 11:10:00,49.1,46.9,29.68,ESE,122,2.2,4.0,92,0.00,,,0.00,WUHU216HW,2013-01-09 19:10:00,
2013-01-09 11:15:00,49.3,47.1,29.68,SE,127,1.7,4.0,92,0.00,,,0.00,WUHU216HW,2013-01-09 19:15:00,
2013-01-09 11:20:00,49.3,47.1,29.68,SE,135,1.8,2.7,92,0.00,,,0.00,WUHU216HW,2013-01-09 19:20:00,
2013-01-09 11:25:00,49.5,47.3,29.67,SE,136,0.8,2.0,92,0.00,,,0.00,WUHU216HW,2013-01-09 19:25:00,
2013-01-09 11:30:00,49.7,47.2,29.67,South,171,1.1,2.5,91,0.00,,,0.00,WUHU216HW,2013-01-09 19:30:00,
2013-01-09 11:35:00,49.7,47.2,29.67,ESE,113,2.7,3.4,91,0.00,,,0.00,WUHU216HW,2013-01-09 19:35:00,
2013-01-09 11:40:00,49.9,47.3,29.67,ESE,113,0.8,3.4,91,0.00,,,0.00,WUHU216HW,2013-01-09 19:40:00,
2013-01-09 11:45:00,50.0,47.4,29.67,SSW,203,2.7,2.7,91,0.00,,,0.00,WUHU216HW,2013-01-09 19:45:00,
2013-01-09 11:50:00,50.0,47.4,29.66,ESE,113,1.3,2.7,91,0.00,,,0.00,WUHU216HW,2013-01-09 19:50:00,
2013-01-09 11:56:00,50.0,47.4,29.66,East,90,3.4,4.0,91,0.00,,,0.00,WUHU216HW,2013-01-09 19:56:00,
2013-01-09 12:01:00,50.2,47.3,29.65,ESE,113,2.9,4.0,90,0.00,,,0.00,WUHU216HW,2013-01-09 20:01:00,
2013-01-09 12:06:00,50.2,47.3,29.65,ESE,113,2.7,3.8,90,0.00,,,0.00,WUHU216HW,2013-01-09 20:06:00,
2013-01-09 12:11:00,50.4,47.5,29.64,East,90,2.5,3.8,90,0.00,,,0.00,WUHU216HW,2013-01-09 20:11:00,
2013-01-09 12:16:00,50.6,47.7,29.64,ESE,123,2.6,4.7,90,0.00,,,0.00,WUHU216HW,2013-01-09 20:16:00,
2013-01-09 12:21:00,50.6,47.7,29.63,SE,135,5.1,6.3,90,0.00,,,0.00,WUHU216HW,2013-01-09 20:21:00,
2013-01-09 12:26:00,50.6,47.4,29.63,SSE,148,1.4,6.3,89,0.00,,,0.00,WUHU216HW,2013-01-09 20:26:00,
2013-01-09 12:31:00,50.8,47.6,29.63,SE,126,3.5,5.1,89,0.00,,,0.00,WUHU216HW,2013-01-09 20:31:00,
2013-01-09 12:36:00,50.8,47.3,29.63,SSE,158,2.9,5.1,88,0.00,,,0.00,WUHU216HW,2013-01-09 20:36:00,
2013-01-09 12:42:00,50.8,47.9,29.63,ESE,122,2.9,4.0,90,0.00,,,0.00,WUHU216HW,2013-01-09 20:42:00,
2013-01-09 12:47:00,50.8,47.6,29.62,SE,135,1.1,4.0,89,0.00,,,0.00,WUHU216HW,2013-01-09 20:47:00,
2013-01-09 12:52:00,50.8,47.6,29.62,South,180,3.1,4.3,89,0.00,,,0.00,WUHU216HW,2013-01-09 20:52:00,
2013-01-09 12:57:00,50.8,47.3,29.62,SE,128,3.6,6.7,88,0.00,,,0.00,WUHU216HW,2013-01-09 20:57:00,
2013-01-09 13:02:00,50.6,47.1,29.62,East,90,4.5,6.7,88,0.00,,,0.00,WUHU216HW,2013-01-09 21:02:00,
2013-01-09 13:07:00,50.6,47.1,29.62,SW,225,3.4,5.4,88,0.00,,,0.00,WUHU216HW,2013-01-09 21:07:00,
2013-01-09 13:12:00,50.4,46.9,29.62,ESE,113,2.5,4.9,88,0.00,,,0.00,WUHU216HW,2013-01-09 21:12:00,
2013-01-09 13:17:00,50.6,47.1,29.62,SSE,158,2.5,4.7,88,0.00,,,0.00,WUHU216HW,2013-01-09 21:17:00,
2013-01-09 13:22:00,50.4,46.9,29.62,SE,135,6.7,6.7,88,0.00,,,0.00,WUHU216HW,2013-01-09 21:22:00,
2013-01-09 13:27:00,50.4,46.9,29.62,SSE,158,2.5,6.7,88,0.00,,,0.00,WUHU216HW,2013-01-09 21:27:00,
2013-01-09 13:32:00,50.4,46.9,29.61,SE,135,3.6,6.7,88,0.00,,,0.00,WUHU216HW,2013-01-09 21:32:00,
2013-01-09 13:37:00,50.4,46.9,29.61,SE,127,3.2,5.1,88,0.00,,,0.00,WUHU216HW,2013-01-09 21:37:00,
2013-01-09 13:42:00,50.4,46.9,29.61,SE,137,2.6,5.1,88,0.00,,,0.00,WUHU216HW,2013-01-09 21:42:00,
2013-01-09 13:48:00,50.4,46.9,29.61,SE,140,1.2,4.3,88,0.00,,,0.00,WUHU216HW,2013-01-09 21:48:00,
2013-01-09 13:53:00,50.2,46.7,29.61,ESE,108,2.4,3.4,88,0.00,,,0.00,WUHU216HW,2013-01-09 21:53:00,
2013-01-09 13:58:00,50.0,46.5,29.60,East,97,3.2,4.9,88,0.00,,,0.00,WUHU216HW,2013-01-09 21:58:00,
2013-01-09 14:03:00,50.0,46.5,29.60,ESE,109,2.3,4.9,88,0.00,,,0.00,WUHU216HW,2013-01-09 22:03:00,
2013-01-09 14:08:00,50.0,46.5,29.60,ESE,112,3.0,4.0,88,0.00,,,0.00,WUHU216HW,2013-01-09 22:08:00,
2013-01-09 14:13:00,50.0,46.5,29.60,ESE,109,1.7,3.8,88,0.00,,,0.00,WUHU216HW,2013-01-09 22:13:00,
2013-01-09 14:18:00,50.0,46.5,29.60,SE,135,3.6,3.6,88,0.00,,,0.00,WUHU216HW,2013-01-09 22:18:00,
2013-01-09 14:23:00,50.0,46.5,29.60,SE,135,4.0,4.0,88,0.00,,,0.00,WUHU216HW,2013-01-09 22:23:00,
2013-01-09 14:28:00,50.0,46.5,29.60,SE,135,4.5,4.7,88,0.00,,,0.00,WUHU216HW,2013-01-09 22:28:00,
2013-01-09 14:33:00,50.0,46.5,29.60,SE,125,1.9,4.7,88,0.00,,,0.00,WUHU216HW,2013-01-09 22:33:00,
2013-01-09 14:38:00,50.2,46.7,29.60,ESE,113,2.5,3.8,88,0.00,,,0.00,WUHU216HW,2013-01-09 22:38:00,
2013-01-09 14:43:00,50.2,46.7,29.60,SE,134,2.8,4.0,88,0.00,,,0.00,WUHU216HW,2013-01-09 22:43:00,
2013-01-09 14:48:00,50.4,46.9,29.60,ESE,113,3.6,4.9,88,0.00,,,0.00,WUHU216HW,2013-01-09 22:48:00,
2013-01-09 14:53:00,50.4,46.9,29.60,SSE,152,1.7,4.9,88,0.00,,,0.00,WUHU216HW,2013-01-09 22:53:00,
2013-01-09 14:58:00,50.4,46.9,29.59,ESE,120,3.6,5.1,88,0.00,,,0.00,WUHU216HW,2013-01-09 22:58:00,
2013-01-09 15:03:00,50.4,46.9,29.60,East,94,3.8,5.1,88,0.00,,,0.00,WUHU216HW,2013-01-09 23:03:00,
2013-01-09 15:09:00,50.2,46.7,29.59,ESE,121,3.2,4.9,88,0.00,,,0.00,WUHU216HW,2013-01-09 23:09:00,
2013-01-09 15:14:00,50.0,46.5,29.59,SE,126,2.5,4.7,88,0.00,,,0.00,WUHU216HW,2013-01-09 23:14:00,
2013-01-09 15:19:00,50.0,46.5,29.59,SE,135,4.0,4.7,88,0.00,,,0.00,WUHU216HW,2013-01-09 23:19:00,
2013-01-09 15:24:00,50.0,46.5,29.59,ESE,104,1.7,6.0,88,0.00,,,0.00,WUHU216HW,2013-01-09 23:24:00,
2013-01-09 15:29:00,50.0,46.5,29.59,ESE,121,2.5,6.0,88,0.00,,,0.00,WUHU216HW,2013-01-09 23:29:00,
2013-01-09 15:34:00,50.0,46.9,29.59,ESE,113,5.4,5.4,89,0.00,,,0.00,WUHU216HW,2013-01-09 23:34:00,
2013-01-09 15:39:00,50.0,46.9,29.59,South,180,1.8,5.4,89,0.00,,,0.00,WUHU216HW,2013-01-09 23:39:00,
2013-01-09 15:44:00,49.9,46.7,29.59,East,90,3.4,4.7,89,0.00,,,0.00,WUHU216HW,2013-01-09 23:44:00,
2013-01-09 15:49:00,49.9,46.7,29.59,East,90,4.3,5.1,89,0.00,,,0.00,WUHU216HW,2013-01-09 23:49:00,
2013-01-09 15:54:00,49.9,46.7,29.59,ESE,113,2.9,6.9,89,0.00,,,0.00,WUHU216HW,2013-01-09 23:54:00,
2013-01-09 15:59:00,49.9,46.7,29.59,SE,135,3.8,6.9,89,0.00,,,0.00,WUHU216HW,2013-01-09 23:59:00,
2013-01-09 16:04:00,49.7,46.5,29.59,SSE,158,5.1,6.5,89,0.00,,,0.00,WUHU216HW,2013-01-10 00:04:00,
2013-01-09 16:09:00,49.7,46.5,29.59,SE,135,3.1,6.5,89,0.00,,,0.00,WUHU216HW,2013-01-10 00:09:00,
2013-01-09 16:14:00,49.7,46.5,29.59,SE,135,2.9,6.3,89,0.00,,,0.00,WUHU216HW,2013-01-10 00:14:00,
2013-01-09 16:20:00,49.5,46.7,29.58,SE,127,2.4,6.3,90,0.00,,,0.00,WUHU216HW,2013-01-10 00:20:00,
2013-01-09 16:25:00,49.5,46.7,29.58,ESE,113,2.5,5.4,90,0.00,,,0.00,WUHU216HW,2013-01-10 00:25:00,
2013-01-09 16:30:00,49.7,46.8,29.58,SE,128,2.7,4.0,90,0.00,,,0.00,WUHU216HW,2013-01-10 00:30:00,
2013-01-09 16:35:00,49.7,46.8,29.58,ESE,123,2.1,4.3,90,0.00,,,0.00,WUHU216HW,2013-01-10 00:35:00,
2013-01-09 16:40:00,49.7,46.8,29.58,ESE,113,2.7,4.3,90,0.00,,,0.00,WUHU216HW,2013-01-10 00:40:00,
2013-01-09 16:45:00,49.7,46.8,29.58,East,100,2.0,4.0,90,0.00,,,0.00,WUHU216HW,2013-01-10 00:45:00,
2013-01-09 16:50:00,49.7,46.8,29.58,SE,127,2.1,4.0,90,0.00,,,0.00,WUHU216HW,2013-01-10 00:50:00,
2013-01-09 16:55:00,49.7,46.8,29.57,SE,127,2.8,4.5,90,0.00,,,0.00,WUHU216HW,2013-01-10 00:55:00,
2013-01-09 17:00:00,49.7,46.8,29.58,SE,128,2.2,4.5,90,0.00,,,0.00,WUHU216HW,2013-01-10 01:00:00,
2013-01-09 17:05:00,49.7,46.8,29.57,East,90,4.7,4.7,90,0.00,,,0.00,WUHU216HW,2013-01-10 01:05:00,
2013-01-09 17:10:00,49.7,46.8,29.57,ESE,113,3.8,4.7,90,0.00,,,0.00,WUHU216HW,2013-01-10 01:10:00,
2013-01-09 17:15:00,49.7,46.8,29.57,ESE,120,3.0,4.7,90,0.00,,,0.00,WUHU216HW,2013-01-10 01:15:00,
2013-01-09 17:21:00,49.7,46.8,29.57,SE,135,2.0,4.5,90,0.00,,,0.00,WUHU216HW,2013-01-10 01:21:00,
2013-01-09 17:26:00,49.7,46.8,29.57,SE,127,2.2,4.5,90,0.00,,,0.00,WUHU216HW,2013-01-10 01:26:00,
2013-01-09 17:31:00,49.7,46.5,29.57,SE,135,5.4,5.4,89,0.00,,,0.00,WUHU216HW,2013-01-10 01:31:00,
2013-01-09 17:36:00,49.5,46.7,29.56,ESE,117,3.4,5.4,90,0.00,,,0.00,WUHU216HW,2013-01-10 01:36:00,
2013-01-09 17:41:00,49.5,46.7,29.56,SE,124,3.1,5.4,90,0.00,,,0.00,WUHU216HW,2013-01-10 01:41:00,
2013-01-09 17:46:00,49.5,46.7,29.56,SE,135,3.1,4.7,90,0.00,,,0.00,WUHU216HW,2013-01-10 01:46:00,
2013-01-09 17:51:00,49.5,46.7,29.56,SSE,158,3.1,4.5,90,0.00,,,0.00,WUHU216HW,2013-01-10 01:51:00,
2013-01-09 17:56:00,49.7,46.8,29.56,SE,135,2.9,4.5,90,0.00,,,0.00,WUHU216HW,2013-01-10 01:56:00,
2013-01-09 18:01:00,49.7,46.8,29.56,SSE,158,2.2,4.5,90,0.00,,,0.00,WUHU216HW,2013-01-10 02:01:00,
2013-01-09 18:06:00,49.7,46.8,29.56,SSW,203,0.4,3.4,90,0.00,,,0.00,WUHU216HW,2013-01-10 02:06:00,
2013-01-09 18:11:00,49.7,47.2,29.56,South,184,1.8,4.0,91,0.00,,,0.00,WUHU216HW,2013-01-10 02:11:00,
2013-01-09 18:16:00,49.9,47.3,29.56,SW,217,1.7,4.0,91,0.00,,,0.00,WUHU216HW,2013-01-10 02:16:00,
2013-01-09 18:22:00,49.9,47.3,29.56,SSW,203,1.8,3.4,91,0.00,,,0.00,WUHU216HW,2013-01-10 02:22:00,
2013-01-09 18:27:00,50.0,47.4,29.56,South,186,2.2,3.4,91,0.00,,,0.00,WUHU216HW,2013-01-10 02:27:00,
2013-01-09 18:32:00,50.0,47.4,29.56,SSW,203,3.6,4.0,91,0.00,,,0.00,WUHU216HW,2013-01-10 02:32:00,
2013-01-09 18:37:00,50.0,47.4,29.56,SW,225,4.7,8.1,91,0.00,,,0.00,WUHU216HW,2013-01-10 02:37:00,
2013-01-09 18:42:00,50.2,47.1,29.57,SW,234,4.4,8.1,89,0.00,,,0.00,WUHU216HW,2013-01-10 02:42:00,
2013-01-09 18:47:00,50.2,46.5,29.57,WSW,248,5.5,6.9,87,0.00,,,0.00,WUHU216HW,2013-01-10 02:47:00,
2013-01-09 18:52:00,50.2,45.8,29.57,WSW,248,6.3,8.1,85,0.00,,,0.00,WUHU216HW,2013-01-10 02:52:00,
2013-01-09 18:57:00,50.0,43.4,29.57,SW,225,10.5,10.5,78,0.00,,,0.00,WUHU216HW,2013-01-10 02:57:00,
2013-01-09 19:02:00,50.0,43.4,29.57,WSW,253,6.6,11.6,78,0.00,,,0.00,WUHU216HW,2013-01-10 03:02:00,
2013-01-09 19:07:00,49.7,42.8,29.57,West,270,7.4,11.6,77,0.00,,,0.00,WUHU216HW,2013-01-10 03:07:00,
2013-01-09 19:12:00,49.7,42.4,29.57,WSW,248,8.5,9.8,76,0.00,,,0.00,WUHU216HW,2013-01-10 03:12:00,
2013-01-09 19:17:00,49.5,41.9,29.58,WSW,250,8.8,10.1,75,0.00,,,0.00,WUHU216HW,2013-01-10 03:17:00,
2013-01-09 19:22:00,49.5,42.2,29.57,WSW,253,7.2,10.5,76,0.00,,,0.00,WUHU216HW,2013-01-10 03:22:00,
2013-01-09 19:28:00,49.3,42.4,29.58,WSW,240,4.4,10.5,77,0.00,,,0.00,WUHU216HW,2013-01-10 03:28:00,
2013-01-09 19:33:00,49.3,42.7,29.58,SW,215,3.6,8.5,78,0.00,,,0.00,WUHU216HW,2013-01-10 03:33:00,
2013-01-09 19:38:00,49.3,43.0,29.58,WSW,248,5.4,6.9,79,0.00,,,0.00,WUHU216HW,2013-01-10 03:38:00,
2013-01-09 19:43:00,49.1,43.2,29.58,WSW,248,3.6,6.9,80,0.00,,,0.00,WUHU216HW,2013-01-10 03:43:00,
2013-01-09 19:48:00,49.0,43.4,29.58,South,180,3.8,5.6,81,0.00,,,0.00,WUHU216HW,2013-01-10 03:48:00,
2013-01-09 19:53:00,48.8,43.5,29.58,SSW,203,1.8,5.6,82,0.00,,,0.00,WUHU216HW,2013-01-10 03:53:00,
2013-01-09 19:58:00,48.6,43.3,29.59,SW,225,2.9,4.7,82,0.00,,,0.00,WUHU216HW,2013-01-10 03:58:00,
2013-01-09 20:03:00,48.4,43.1,29.59,SSW,202,3.5,4.9,82,0.00,,,0.00,WUHU216HW,2013-01-10 04:03:00,
2013-01-09 20:08:00,48.2,42.3,29.59,WSW,248,3.1,4.9,80,0.00,,,0.00,WUHU216HW,2013-01-10 04:08:00,
2013-01-09 20:13:00,48.1,42.1,29.59,SW,225,4.7,5.4,80,0.00,,,0.00,WUHU216HW,2013-01-10 04:13:00,
2013-01-09 20:18:00,47.9,41.9,29.60,SSW,203,4.9,5.6,80,0.00,,,0.00,WUHU216HW,2013-01-10 04:18:00,
2013-01-09 20:24:00,47.7,41.9,29.60,SSW,203,6.7,7.8,80,0.00,,,0.00,WUHU216HW,2013-01-10 04:24:00,
2013-01-09 20:29:00,47.5,41.7,29.60,WSW,248,6.3,7.8,80,0.00,,,0.00,WUHU216HW,2013-01-10 04:29:00,
2013-01-09 20:34:00,47.3,41.1,29.59,WSW,248,6.3,9.8,79,0.00,,,0.00,WUHU216HW,2013-01-10 04:34:00,
2013-01-09 20:39:00,47.3,41.5,29.60,WSW,248,3.4,9.8,80,0.00,,,0.00,WUHU216HW,2013-01-10 04:39:00,
2013-01-09 20:44:00,47.2,41.0,29.60,WSW,248,8.5,8.5,79,0.00,,,0.00,WUHU216HW,2013-01-10 04:44:00,
2013-01-09 20:49:00,46.8,40.0,29.60,WSW,248,7.3,8.5,77,0.00,,,0.00,WUHU216HW,2013-01-10 04:49:00,
2013-01-09 20:54:00,46.6,39.8,29.60,WSW,248,12.1,12.1,77,0.00,,,0.00,WUHU216HW,2013-01-10 04:54:00,
2013-01-09 20:59:00,46.4,39.7,29.60,WSW,252,10.0,13.2,77,0.00,,,0.00,WUHU216HW,2013-01-10 04:59:00,
2013-01-09 21:00:00,46.4,39.7,29.60,SW,225,10.5,13.2,77,0.00,,,0.00,WUHU216HW,2013-01-10 05:00:00,
2013-01-09 21:01:00,46.4,39.7,29.60,WSW,245,8.6,13.2,77,0.00,,,0.00,WUHU216HW,2013-01-10 05:01:00,
2013-01-09 21:02:00,46.4,39.7,29.60,SW,225,11.4,13.2,77,0.00,,,0.00,WUHU216HW,2013-01-10 05:02:00,
2013-01-09 21:08:00,46.1,39.6,29.60,WSW,247,9.9,13.9,78,0.00,,,0.00,WUHU216HW,2013-01-10 05:08:00,
2013-01-09 21:13:00,45.7,39.0,29.61,SW,232,8.4,13.9,77,0.00,,,0.00,WUHU216HW,2013-01-10 05:13:00,
2013-01-09 21:18:00,45.4,38.9,29.61,West,270,10.1,10.7,78,0.00,,,0.00,WUHU216HW,2013-01-10 05:18:00,
2013-01-09 21:23:00,45.2,39.1,29.62,SW,225,10.5,11.0,79,0.00,,,0.00,WUHU216HW,2013-01-10 05:23:00,
2013-01-09 21:28:00,45.0,38.9,29.62,WSW,243,8.2,12.1,79,0.00,,,0.00,WUHU216HW,2013-01-10 05:28:00,
2013-01-09 21:33:00,45.0,38.9,29.62,WSW,248,8.9,12.1,79,0.00,,,0.00,WUHU216HW,2013-01-10 05:33:00,
2013-01-09 21:38:00,44.8,38.7,29.62,WSW,248,9.2,10.1,79,0.00,,,0.00,WUHU216HW,2013-01-10 05:38:00,
2013-01-09 21:43:00,44.6,38.5,29.62,WSW,240,7.5,10.1,79,0.00,,,0.00,WUHU216HW,2013-01-10 05:43:00,
2013-01-09 21:48:00,44.6,38.5,29.62,SW,225,5.7,10.1,79,0.00,,,0.00,WUHU216HW,2013-01-10 05:48:00,
2013-01-09 21:53:00,44.5,38.3,29.63,SW,231,5.4,8.7,79,0.00,,,0.00,WUHU216HW,2013-01-10 05:53:00,
2013-01-09 21:58:00,44.5,38.3,29.64,SW,225,5.4,7.6,79,0.00,,,0.00,WUHU216HW,2013-01-10 05:58:00,
2013-01-09 22:03:00,44.3,38.5,29.64,SW,230,3.2,6.3,80,0.00,,,0.00,WUHU216HW,2013-01-10 06:03:00,
2013-01-09 22:09:00,44.1,38.3,29.64,SW,225,3.1,4.5,80,0.00,,,0.00,WUHU216HW,2013-01-10 06:09:00,
2013-01-09 22:14:00,43.9,38.2,29.64,SW,225,3.4,4.7,80,0.00,,,0.00,WUHU216HW,2013-01-10 06:14:00,
2013-01-09 22:19:00,43.6,38.1,29.64,SW,225,4.5,5.4,81,0.00,,,0.00,WUHU216HW,2013-01-10 06:19:00,
2013-01-09 22:24:00,43.4,37.9,29.64,SW,225,3.4,5.4,81,0.00,,,0.00,WUHU216HW,2013-01-10 06:24:00,
2013-01-09 22:29:00,43.2,37.7,29.64,SW,225,4.5,4.5,81,0.00,,,0.00,WUHU216HW,2013-01-10 06:29:00,
2013-01-09 22:34:00,43.0,37.5,29.64,WSW,238,1.8,4.5,81,0.00,,,0.00,WUHU216HW,2013-01-10 06:34:00,
2013-01-09 22:39:00,42.8,37.7,29.64,SW,226,2.7,4.5,82,0.00,,,0.00,WUHU216HW,2013-01-10 06:39:00,
2013-01-09 22:44:00,42.7,37.5,29.64,SW,225,2.2,3.8,82,0.00,,,0.00,WUHU216HW,2013-01-10 06:44:00,
2013-01-09 22:49:00,42.5,37.4,29.64,SSW,212,2.4,4.0,82,0.00,,,0.00,WUHU216HW,2013-01-10 06:49:00,
2013-01-09 22:54:00,42.3,37.4,29.65,SW,225,2.8,4.7,83,0.00,,,0.00,WUHU216HW,2013-01-10 06:54:00,
2013-01-09 22:59:00,42.1,37.3,29.65,SW,225,2.2,4.7,83,0.00,,,0.00,WUHU216HW,2013-01-10 06:59:00,
2013-01-09 23:04:00,42.1,37.3,29.65,SW,225,2.8,4.7,83,0.00,,,0.00,WUHU216HW,2013-01-10 07:04:00,
2013-01-09 23:09:00,41.8,36.9,29.65,SW,225,1.3,4.7,83,0.00,,,0.00,WUHU216HW,2013-01-10 07:09:00,
2013-01-09 23:15:00,41.6,36.5,29.65,SW,224,1.3,3.1,82,0.00,,,0.00,WUHU216HW,2013-01-10 07:15:00,
2013-01-09 23:20:00,41.4,36.3,29.65,SW,225,1.8,3.1,82,0.00,,,0.00,WUHU216HW,2013-01-10 07:20:00,
2013-01-09 23:25:00,41.2,36.4,29.65,SW,225,0.9,3.1,83,0.00,,,0.00,WUHU216HW,2013-01-10 07:25:00,
2013-01-09 23:30:00,41.0,36.2,29.65,SW,225,0.4,1.8,83,0.00,,,0.00,WUHU216HW,2013-01-10 07:30:00,
2013-01-09 23:35:00,40.9,36.0,29.66,SSW,203,1.1,1.3,83,0.00,,,0.00,WUHU216HW,2013-01-10 07:35:00,
2013-01-09 23:40:00,40.7,35.8,29.66,SSW,203,0.7,1.3,83,0.00,,,0.00,WUHU216HW,2013-01-10 07:40:00,
2013-01-09 23:45:00,40.3,35.6,29.66,SSW,203,0.6,0.9,83,0.00,,,0.00,WUHU216HW,2013-01-10 07:45:00,
2013-01-09 23:50:00,40.1,35.4,29.66,SSW,203,1.3,1.3,83,0.00,,,0.00,WUHU216HW,2013-01-10 07:50:00,
2013-01-09 23:55:00,40.0,35.5,29.66,SSW,203,1.3,1.3,84,0.00,,,0.00,WUHU216HW,2013-01-10 07:55:00,